Time;durP1;ratioP1;P1;durP2;ratioP2;P2;SDS_P1;SDS_P2;PMS_P1;PMS_P2;Temp;Humidity;BMP_temperature;BMP_pressure;BME280_temperature;BME280_humidity;BME280_pressure;Samples;Min_cycle;Max_cycle;Signal;HPM_P1;HPM_P2
2023/07/02 00:02:11;;;;;;;5.43;1.43;;;27.70;94.50;;;;;;5004513;28;20213;-96
2023/07/02 00:04:44;;;;;;;2.50;1.30;;;27.50;95.30;;;;;;5012149;28;20198;-96
2023/07/02 00:07:18;;;;;;;3.90;1.70;;;27.50;95.00;;;;;;5027448;28;20248;-94
2023/07/02 00:09:50;;;;;;;2.83;1.60;;;27.50;95.50;;;;;;5035139;28;20241;-96
2023/07/02 00:12:23;;;;;;;5.13;1.53;;;27.40;94.40;;;;;;5027491;28;20205;-95
2023/07/02 00:15:15;;;;;;;4.03;1.50;;;27.10;94.90;;;;;;5027144;28;20205;-94
2023/07/02 00:17:51;;;;;;;2.77;1.50;;;27.00;95.60;;;;;;5010304;28;20313;-96
2023/07/02 00:23:08;;;;;;;2.53;1.50;;;26.90;94.80;;;;;;5027759;28;20252;-95
2023/07/02 00:25:45;;;;;;;3.13;1.30;;;26.90;94.50;;;;;;5013237;28;20234;-96
2023/07/02 00:28:19;;;;;;;2.27;1.20;;;27.00;96.50;;;;;;5088382;22;20312;-95
2023/07/02 00:30:52;;;;;;;2.03;1.40;;;27.00;95.30;;;;;;5063965;23;20252;-95
2023/07/02 00:33:24;;;;;;;2.70;1.73;;;26.80;94.60;;;;;;5051210;28;20255;-96
2023/07/02 00:35:56;;;;;;;3.37;1.60;;;26.90;95.50;;;;;;5047459;28;20245;-95
2023/07/02 00:38:27;;;;;;;4.47;1.70;;;26.90;94.00;;;;;;5047613;28;20277;-96
2023/07/02 00:41:08;;;;;;;1.83;1.30;;;26.70;94.20;;;;;;5039334;28;20220;-95
2023/07/02 00:46:36;;;;;;;2.90;1.50;;;26.40;95.20;;;;;;5030047;28;20684;-96
2023/07/02 00:49:08;;;;;;;5.50;1.50;;;26.50;95.40;;;;;;5034140;28;20219;-96
2023/07/02 00:51:41;;;;;;;2.83;1.30;;;26.60;95.10;;;;;;5035698;28;20234;-96
2023/07/02 00:54:13;;;;;;;4.27;1.40;;;26.90;95.00;;;;;;5039508;28;20568;-96
2023/07/02 00:56:45;;;;;;;3.07;1.30;;;27.20;94.00;;;;;;5035466;28;20292;-96
2023/07/02 00:59:18;;;;;;;2.03;1.10;;;27.30;94.30;;;;;;5034569;28;20728;-96
2023/07/02 01:01:56;;;;;;;2.40;1.30;;;27.70;93.90;;;;;;5033023;28;20216;-96
2023/07/02 01:04:28;;;;;;;2.83;1.27;;;28.00;94.00;;;;;;5041536;28;20248;-96
2023/07/02 01:10:01;;;;;;;2.93;1.60;;;28.20;93.30;;;;;;5039104;28;20224;-96
2023/07/02 01:12:33;;;;;;;3.83;1.10;;;28.10;94.40;;;;;;5033737;28;20201;-96
2023/07/02 01:15:07;;;;;;;2.97;1.30;;;28.30;93.60;;;;;;5020053;28;20233;-96
2023/07/02 01:17:43;;;;;;;2.40;1.20;;;28.10;93.70;;;;;;5017330;28;20274;-96
2023/07/02 01:20:19;;;;;;;3.30;1.23;;;28.00;94.80;;;;;;5018750;28;20209;-96
2023/07/02 01:22:53;;;;;;;2.10;1.30;;;28.20;94.30;;;;;;5024158;28;20211;-94
2023/07/02 01:25:24;;;;;;;2.87;1.30;;;28.20;94.00;;;;;;5039251;28;20264;-96
2023/07/02 01:27:58;;;;;;;3.23;1.40;;;28.30;94.70;;;;;;5040301;28;20209;-96
2023/07/02 01:30:31;;;;;;;3.33;1.37;;;28.30;94.80;;;;;;5040646;28;20216;-95
2023/07/02 01:33:12;;;;;;;2.53;1.57;;;27.90;94.60;;;;;;5036852;28;20223;-96
2023/07/02 01:35:46;;;;;;;2.57;1.43;;;28.00;95.20;;;;;;5031461;28;20217;-95
2023/07/02 01:38:18;;;;;;;3.10;1.40;;;28.30;93.80;;;;;;5035739;28;20223;-96
2023/07/02 01:40:49;;;;;;;2.80;1.43;;;27.80;94.90;;;;;;5033805;28;20224;-96
2023/07/02 01:43:21;;;;;;;5.33;1.60;;;28.20;94.80;;;;;;5041574;28;20228;-96
2023/07/02 01:48:48;;;;;;;2.83;1.33;;;28.20;94.80;;;;;;5036119;28;20213;-91
2023/07/02 01:51:24;;;;;;;4.30;1.50;;;28.10;94.90;;;;;;5036548;28;20556;-94
2023/07/02 01:53:57;;;;;;;4.73;1.20;;;27.60;95.10;;;;;;5038699;28;20213;-92
2023/07/02 01:56:29;;;;;;;1.40;1.00;;;27.90;95.10;;;;;;5036493;28;20661;-94
2023/07/02 01:59:02;;;;;;;1.83;1.10;;;28.30;94.50;;;;;;5037850;28;20217;-96
2023/07/02 02:01:33;;;;;;;2.57;0.93;;;28.10;94.20;;;;;;5037436;28;20205;-95
2023/07/02 02:04:05;;;;;;;2.13;1.00;;;28.00;94.40;;;;;;5034206;28;20248;-96
2023/07/02 02:06:44;;;;;;;1.83;1.30;;;27.50;94.60;;;;;;5042626;28;20213;-93
2023/07/02 02:12:01;;;;;;;2.70;0.73;;;26.30;95.00;;;;;;5037621;28;20232;-90
2023/07/02 02:17:47;;;;;;;1.70;0.70;;;25.20;95.60;;;;;;5035783;28;20197;-92
2023/07/02 02:20:19;;;;;;;1.27;0.97;;;24.70;96.30;;;;;;5053556;28;20220;-95
2023/07/02 02:22:52;;;;;;;3.10;1.10;;;24.40;96.50;;;;;;5053053;28;20181;-93
2023/07/02 02:25:23;;;;;;;2.10;1.30;;;24.20;98.20;;;;;;5050383;28;20263;-92
2023/07/02 02:27:54;;;;;;;2.37;0.83;;;23.90;97.40;;;;;;5053129;28;20205;-94
2023/07/02 02:30:26;;;;;;;2.87;1.00;;;23.60;97.80;;;;;;5033922;28;20224;-92
2023/07/02 02:32:57;;;;;;;1.90;1.00;;;23.40;98.30;;;;;;5038195;28;20285;-92
2023/07/02 02:35:30;;;;;;;2.37;1.30;;;23.20;98.60;;;;;;5032877;28;20309;-90
2023/07/02 02:38:05;;;;;;;1.70;1.13;;;23.00;98.60;;;;;;5040080;28;20292;-95
2023/07/02 02:40:39;;;;;;;4.13;1.30;;;22.70;99.10;;;;;;5038382;28;20217;-95
2023/07/02 02:43:11;;;;;;;1.40;1.03;;;22.50;99.30;;;;;;5033477;28;20220;-94
2023/07/02 02:45:42;;;;;;;4.30;1.10;;;22.30;99.90;;;;;;5032397;28;20235;-92
2023/07/02 02:48:15;;;;;;;1.73;1.07;;;22.10;99.90;;;;;;5036368;28;20304;-92
2023/07/02 02:50:47;;;;;;;1.30;0.90;;;22.00;99.90;;;;;;5037794;28;20277;-94
2023/07/02 02:55:57;;;;;;;4.27;1.23;;;21.70;99.90;;;;;;5470752;22;20442;-96
2023/07/02 03:03:49;;;;;;;4.63;1.20;;;21.20;99.90;;;;;;5006967;28;20296;-96
2023/07/02 03:06:22;;;;;;;2.30;1.10;;;21.10;99.90;;;;;;5001250;28;20925;-96
2023/07/02 03:08:56;;;;;;;3.27;1.10;;;21.00;99.90;;;;;;4991655;28;20220;-93
2023/07/02 03:11:31;;;;;;;2.17;1.33;;;20.90;99.90;;;;;;5007351;28;20666;-96
2023/07/02 03:14:03;;;;;;;3.97;1.37;;;20.80;99.90;;;;;;4995656;28;20284;-90
2023/07/02 03:16:36;;;;;;;2.10;1.07;;;20.80;99.90;;;;;;5081765;23;20205;-86
2023/07/02 03:21:51;;;;;;;5.30;1.47;;;20.50;99.90;;;;;;5183603;22;20349;-96
2023/07/02 03:24:45;;;;;;;2.37;1.17;;;20.40;99.90;;;;;;5766635;22;20295;-95
2023/07/02 03:29:54;;;;;;;2.27;1.23;;;20.10;99.90;;;;;;5024747;28;20225;-93
2023/07/02 03:32:26;;;;;;;3.50;1.40;;;20.00;99.90;;;;;;5016240;28;20232;-96
2023/07/02 03:34:59;;;;;;;2.03;1.17;;;19.90;99.90;;;;;;5029612;28;20205;-96
2023/07/02 03:37:32;;;;;;;4.90;1.50;;;19.80;99.90;;;;;;5146551;22;20218;-93
2023/07/02 03:40:04;;;;;;;4.30;1.87;;;19.60;99.90;;;;;;5207956;22;20317;-95
2023/07/02 03:42:36;;;;;;;3.33;1.17;;;19.50;99.90;;;;;;5018337;28;20214;-91
2023/07/02 03:45:11;;;;;;;4.13;1.17;;;19.30;99.90;;;;;;5034309;28;20222;-95
2023/07/02 03:47:45;;;;;;;3.30;1.20;;;19.10;99.90;;;;;;5025752;28;20197;-94
2023/07/02 03:50:17;;;;;;;2.47;1.10;;;18.90;99.90;;;;;;5030010;28;20210;-94
2023/07/02 03:52:49;;;;;;;3.87;1.60;;;18.90;99.90;;;;;;5018269;28;20212;-93
2023/07/02 03:55:21;;;;;;;5.17;1.40;;;18.70;99.90;;;;;;5020293;28;20212;-94
2023/07/02 03:57:52;;;;;;;4.87;1.67;;;18.50;99.90;;;;;;4998190;28;20237;-94
2023/07/02 04:00:28;;;;;;;2.60;1.40;;;18.40;99.90;;;;;;5010407;28;20209;-92
2023/07/02 04:02:59;;;;;;;4.07;1.47;;;18.30;99.90;;;;;;5003626;28;20216;-94
2023/07/02 04:05:31;;;;;;;3.07;1.23;;;18.20;99.90;;;;;;5013268;28;20667;-95
2023/07/02 04:08:02;;;;;;;2.27;1.13;;;18.10;99.90;;;;;;5010688;28;20204;-96
2023/07/02 04:10:34;;;;;;;2.67;1.27;;;18.00;99.90;;;;;;5022276;28;20229;-96
2023/07/02 04:13:07;;;;;;;2.87;1.27;;;18.00;99.90;;;;;;5016198;28;20213;-93
2023/07/02 04:15:41;;;;;;;2.87;1.13;;;17.90;99.90;;;;;;5027324;28;20225;-95
2023/07/02 04:18:13;;;;;;;2.40;1.27;;;17.80;99.90;;;;;;5020439;28;20197;-95
2023/07/02 04:20:45;;;;;;;2.00;1.30;;;17.70;99.90;;;;;;5018846;28;20232;-95
2023/07/02 04:23:17;;;;;;;4.73;1.27;;;17.60;99.90;;;;;;5015438;28;20214;-96
2023/07/02 04:25:50;;;;;;;3.87;1.23;;;17.60;99.90;;;;;;4998946;28;20226;-95
2023/07/02 04:28:41;;;;;;;5.23;1.03;;;17.60;99.90;;;;;;5009512;28;20230;-95
2023/07/02 04:31:19;;;;;;;3.00;1.20;;;17.50;99.90;;;;;;5020116;28;20244;-96
2023/07/02 04:33:51;;;;;;;3.70;1.20;;;17.50;99.90;;;;;;5018419;28;20292;-96
2023/07/02 04:36:32;;;;;;;1.87;1.40;;;17.50;99.90;;;;;;5019023;28;20208;-95
2023/07/02 04:39:04;;;;;;;3.90;1.27;;;17.40;99.90;;;;;;5019358;28;20217;-91
2023/07/02 04:41:37;;;;;;;2.67;0.97;;;17.40;99.90;;;;;;5027335;28;20266;-96
2023/07/02 04:44:11;;;;;;;2.40;0.90;;;17.40;99.90;;;;;;5025001;28;20256;-96
2023/07/02 04:46:45;;;;;;;3.33;1.03;;;17.40;99.90;;;;;;5012697;28;20216;-94
2023/07/02 04:49:17;;;;;;;1.83;1.07;;;17.30;99.90;;;;;;5021436;28;20216;-96
2023/07/02 04:51:53;;;;;;;3.13;1.10;;;17.30;99.90;;;;;;5001127;28;20216;-96
2023/07/02 04:54:26;;;;;;;1.53;1.10;;;17.30;99.90;;;;;;5014646;28;20193;-96
2023/07/02 04:56:58;;;;;;;4.33;1.00;;;17.20;99.90;;;;;;5022632;28;20205;-96
2023/07/02 04:59:30;;;;;;;2.47;0.90;;;17.20;99.90;;;;;;5024768;28;20265;-96
2023/07/02 05:02:06;;;;;;;3.53;1.13;;;17.10;99.90;;;;;;5016107;28;20288;-96
2023/07/02 05:04:39;;;;;;;2.67;1.00;;;17.10;99.90;;;;;;5022786;28;20259;-96
2023/07/02 05:07:11;;;;;;;3.37;1.47;;;17.10;99.90;;;;;;5007334;28;20210;-96
2023/07/02 05:09:48;;;;;;;3.80;1.07;;;17.00;99.90;;;;;;5029148;28;20209;-96
2023/07/02 05:12:22;;;;;;;2.57;1.30;;;16.90;99.90;;;;;;5027153;28;20201;-95
2023/07/02 05:14:55;;;;;;;3.77;1.10;;;16.90;99.90;;;;;;5031445;28;20209;-96
2023/07/02 05:17:32;;;;;;;2.67;1.10;;;16.80;99.90;;;;;;5024817;28;20263;-96
2023/07/02 05:20:04;;;;;;;3.27;1.17;;;16.70;99.90;;;;;;5018793;28;20689;-96
2023/07/02 05:22:37;;;;;;;2.60;1.23;;;16.70;99.90;;;;;;5028372;28;20205;-96
2023/07/02 05:25:10;;;;;;;3.20;0.90;;;16.60;99.90;;;;;;5038656;28;20267;-96
2023/07/02 05:27:46;;;;;;;2.57;1.20;;;16.60;99.90;;;;;;5640468;22;20255;-96
2023/07/02 05:32:58;;;;;;;2.70;0.90;;;16.60;99.90;;;;;;5185603;22;20232;-94
2023/07/02 05:38:09;;;;;;;4.03;1.40;;;16.50;99.90;;;;;;5222467;22;20252;-96
2023/07/02 05:40:44;;;;;;;1.97;0.97;;;16.50;99.90;;;;;;5040419;28;20216;-96
2023/07/02 05:43:17;;;;;;;2.93;1.20;;;16.50;99.90;;;;;;5050090;28;20208;-96
2023/07/02 05:45:49;;;;;;;2.47;1.03;;;16.50;99.90;;;;;;5048422;28;20260;-96
2023/07/02 05:48:26;;;;;;;3.20;1.20;;;16.50;99.90;;;;;;5037965;28;20181;-96
2023/07/02 05:51:01;;;;;;;6.00;1.77;;;16.40;99.90;;;;;;5043804;28;20276;-96
2023/07/02 05:53:43;;;;;;;6.67;1.00;;;16.40;99.90;;;;;;5056221;28;20188;-96
2023/07/02 05:59:18;;;;;;;2.47;1.03;;;16.30;99.90;;;;;;5657595;22;21409;-96
2023/07/02 06:01:51;;;;;;;2.03;1.10;;;16.30;99.90;;;;;;5058387;28;20205;-96
2023/07/02 06:04:33;;;;;;;3.00;1.10;;;16.30;99.90;;;;;;5056946;28;20237;-96
2023/07/02 06:07:06;;;;;;;3.13;1.33;;;16.20;99.90;;;;;;5053932;28;20259;-96
2023/07/02 06:09:39;;;;;;;5.20;1.40;;;16.20;99.90;;;;;;5053097;28;20205;-96
2023/07/02 06:12:12;;;;;;;2.67;1.20;;;16.20;99.90;;;;;;5050026;28;20263;-96
2023/07/02 06:14:45;;;;;;;3.03;1.00;;;16.10;99.90;;;;;;5032977;28;20251;-96
2023/07/02 06:17:20;;;;;;;2.57;1.00;;;16.10;99.90;;;;;;5045754;28;20208;-96
2023/07/02 06:20:11;;;;;;;2.07;1.00;;;16.00;99.90;;;;;;5048094;28;20209;-96
2023/07/02 06:22:46;;;;;;;2.40;1.13;;;16.00;99.90;;;;;;5047926;28;20275;-96
2023/07/02 06:25:18;;;;;;;3.07;1.33;;;15.90;99.90;;;;;;5044612;28;20235;-96
2023/07/02 06:27:51;;;;;;;5.33;1.50;;;15.90;99.90;;;;;;5044462;28;20220;-95
2023/07/02 06:30:25;;;;;;;3.00;1.20;;;15.80;99.90;;;;;;5045557;28;20205;-96
2023/07/02 06:32:58;;;;;;;3.73;1.17;;;15.80;99.90;;;;;;5050036;28;20212;-96
2023/07/02 06:35:33;;;;;;;2.27;1.20;;;15.80;99.90;;;;;;5047173;28;20646;-96
2023/07/02 06:38:08;;;;;;;3.70;1.27;;;15.70;99.90;;;;;;5043658;28;20260;-96
2023/07/02 06:40:40;;;;;;;2.30;1.13;;;15.60;99.90;;;;;;5052296;28;20207;-96
2023/07/02 06:43:15;;;;;;;4.03;1.30;;;15.60;99.90;;;;;;5051780;28;20213;-96
2023/07/02 06:45:51;;;;;;;2.03;1.20;;;15.60;99.90;;;;;;5052379;28;20240;-96
2023/07/02 06:48:32;;;;;;;5.10;1.53;;;15.40;99.90;;;;;;5048417;28;20228;-96
2023/07/02 06:51:14;;;;;;;3.57;1.30;;;15.50;99.90;;;;;;5050171;28;20227;-96
2023/07/02 06:53:48;;;;;;;1.97;1.20;;;15.50;99.90;;;;;;5047239;28;20205;-96
2023/07/02 06:56:21;;;;;;;3.10;1.30;;;15.50;99.90;;;;;;5055814;28;20201;-95
2023/07/02 06:58:55;;;;;;;2.83;1.07;;;15.40;99.90;;;;;;5046701;28;20189;-96
2023/07/02 07:01:27;;;;;;;1.33;1.00;;;15.40;99.90;;;;;;5032621;28;20240;-95
2023/07/02 07:03:59;;;;;;;2.63;1.17;;;15.40;99.90;;;;;;5040327;28;20229;-96
2023/07/02 07:06:37;;;;;;;3.63;1.07;;;15.40;99.90;;;;;;5038176;28;20225;-96
2023/07/02 07:09:10;;;;;;;3.00;1.03;;;15.30;99.90;;;;;;5037565;28;20208;-96
2023/07/02 07:11:43;;;;;;;2.63;1.27;;;15.40;99.90;;;;;;5027556;28;20216;-96
2023/07/02 07:14:15;;;;;;;3.50;1.20;;;15.30;99.90;;;;;;5039901;28;20197;-96
2023/07/02 07:16:47;;;;;;;3.63;1.50;;;15.30;99.90;;;;;;5022981;28;20241;-96
2023/07/02 07:19:19;;;;;;;3.80;1.37;;;15.30;99.90;;;;;;5037215;28;20235;-96
2023/07/02 07:21:54;;;;;;;1.53;1.03;;;15.30;99.90;;;;;;5039651;28;20215;-96
2023/07/02 07:24:26;;;;;;;2.77;1.37;;;15.20;99.90;;;;;;5029571;28;20335;-96
2023/07/02 07:27:00;;;;;;;1.43;1.27;;;15.20;99.90;;;;;;5046668;28;20220;-96
2023/07/02 07:29:33;;;;;;;3.10;1.37;;;15.20;99.90;;;;;;5049942;28;20288;-96
2023/07/02 07:32:05;;;;;;;2.77;1.60;;;15.10;99.90;;;;;;5038439;28;20225;-96
2023/07/02 07:34:38;;;;;;;2.77;1.40;;;15.10;99.90;;;;;;5044533;28;20297;-96
2023/07/02 07:37:13;;;;;;;3.50;1.00;;;15.10;99.90;;;;;;5051753;28;20216;-96
2023/07/02 07:39:46;;;;;;;2.30;1.20;;;15.00;99.90;;;;;;5046879;28;20200;-96
2023/07/02 07:42:18;;;;;;;4.40;1.57;;;15.00;99.90;;;;;;5051400;28;20607;-96
2023/07/02 07:44:52;;;;;;;2.33;1.43;;;14.90;99.90;;;;;;5029107;28;20205;-95
2023/07/02 07:47:25;;;;;;;3.23;1.37;;;14.90;99.90;;;;;;5051990;28;20251;-96
2023/07/02 07:49:58;;;;;;;4.20;1.60;;;14.90;99.90;;;;;;5054385;28;20223;-96
2023/07/02 07:52:34;;;;;;;3.53;1.40;;;14.80;99.90;;;;;;5054520;28;20205;-95
2023/07/02 07:55:07;;;;;;;2.67;1.33;;;14.80;99.90;;;;;;5055474;28;20233;-96
2023/07/02 07:57:39;;;;;;;3.13;1.30;;;14.80;99.90;;;;;;5042672;28;20182;-96
2023/07/02 08:00:12;;;;;;;2.47;1.17;;;14.70;99.90;;;;;;5048466;28;20231;-94
2023/07/02 08:02:44;;;;;;;2.40;1.40;;;14.80;99.90;;;;;;5038883;28;20213;-96
2023/07/02 08:05:17;;;;;;;1.77;1.23;;;14.70;99.90;;;;;;5046908;28;20185;-96
2023/07/02 08:07:53;;;;;;;3.47;1.47;;;14.70;99.90;;;;;;5054108;28;20252;-96
2023/07/02 08:10:28;;;;;;;4.80;1.50;;;14.60;99.90;;;;;;5054464;28;20196;-96
2023/07/02 08:13:03;;;;;;;3.07;1.40;;;14.60;99.90;;;;;;5048617;28;20280;-96
2023/07/02 08:15:34;;;;;;;2.90;1.47;;;14.60;99.90;;;;;;5028009;28;20217;-96
2023/07/02 08:18:09;;;;;;;1.87;1.40;;;14.60;99.90;;;;;;5031169;28;20209;-96
2023/07/02 08:20:41;;;;;;;4.67;1.50;;;14.60;99.90;;;;;;5025195;28;20209;-96
2023/07/02 08:23:15;;;;;;;2.67;1.40;;;14.60;99.90;;;;;;5037189;28;20232;-96
2023/07/02 08:25:47;;;;;;;3.40;1.70;;;14.50;99.90;;;;;;5040761;28;20223;-96
2023/07/02 08:28:19;;;;;;;4.30;1.70;;;14.50;99.90;;;;;;5039664;28;20236;-96
2023/07/02 08:30:51;;;;;;;2.80;1.40;;;14.40;99.90;;;;;;5037467;28;20205;-96
2023/07/02 08:33:26;;;;;;;3.40;1.40;;;14.40;99.90;;;;;;5039251;28;20216;-96
2023/07/02 08:36:00;;;;;;;4.30;1.37;;;14.40;99.90;;;;;;5040870;28;20215;-96
2023/07/02 08:38:34;;;;;;;2.33;1.23;;;14.40;99.90;;;;;;5037043;28;20216;-96
2023/07/02 08:41:06;;;;;;;3.80;1.40;;;14.40;99.90;;;;;;5039613;28;20232;-96
2023/07/02 08:43:39;;;;;;;3.83;1.30;;;14.40;99.90;;;;;;5042245;28;20212;-96
2023/07/02 08:46:12;;;;;;;4.73;1.17;;;14.40;99.90;;;;;;5040230;28;20209;-96
2023/07/02 08:48:44;;;;;;;2.67;1.40;;;14.30;99.90;;;;;;5039743;28;20649;-96
2023/07/02 08:51:16;;;;;;;3.53;1.20;;;14.30;99.90;;;;;;5034696;28;20207;-96
2023/07/02 08:53:54;;;;;;;4.27;1.33;;;14.20;99.90;;;;;;5045438;28;20207;-96
2023/07/02 08:56:27;;;;;;;2.53;1.20;;;14.20;99.90;;;;;;5053474;28;20283;-95
2023/07/02 08:58:59;;;;;;;1.60;1.30;;;14.20;99.90;;;;;;5049685;28;20193;-96
2023/07/02 09:01:32;;;;;;;3.00;1.40;;;14.20;99.90;;;;;;5036809;28;20208;-96
2023/07/02 09:04:05;;;;;;;2.87;1.00;;;14.10;99.90;;;;;;5049541;28;20279;-96
2023/07/02 09:06:37;;;;;;;2.80;1.30;;;14.10;99.90;;;;;;5037159;28;20221;-96
2023/07/02 09:09:13;;;;;;;2.97;1.10;;;14.10;99.90;;;;;;5048540;28;20193;-96
2023/07/02 09:11:51;;;;;;;3.33;1.17;;;14.10;99.90;;;;;;5057364;28;20211;-96
2023/07/02 09:14:30;;;;;;;2.50;1.37;;;14.10;99.90;;;;;;5048403;28;20216;-96
2023/07/02 09:17:07;;;;;;;2.37;1.20;;;14.00;99.90;;;;;;5050236;28;20220;-96
2023/07/02 09:19:52;;;;;;;6.30;1.60;;;14.00;99.90;;;;;;5059599;28;20201;-96
2023/07/02 09:22:24;;;;;;;2.70;1.10;;;13.90;99.90;;;;;;5059073;28;20264;-96
2023/07/02 09:24:59;;;;;;;2.43;1.20;;;13.90;99.90;;;;;;5046150;28;20215;-96
2023/07/02 09:27:38;;;;;;;2.83;1.20;;;13.80;99.90;;;;;;5030687;28;20247;-96
2023/07/02 09:30:13;;;;;;;3.40;1.43;;;13.80;99.90;;;;;;5034223;28;20220;-96
2023/07/02 09:32:46;;;;;;;2.50;1.10;;;13.80;99.90;;;;;;5033384;28;20684;-96
2023/07/02 09:35:22;;;;;;;3.30;1.13;;;13.80;99.90;;;;;;5037553;28;20206;-96
2023/07/02 09:37:54;;;;;;;2.93;1.37;;;13.90;99.90;;;;;;5032765;28;20196;-95
2023/07/02 09:40:28;;;;;;;3.00;1.17;;;13.90;99.90;;;;;;5039095;28;20212;-96
2023/07/02 09:43:01;;;;;;;3.10;1.40;;;13.80;99.90;;;;;;5039318;28;20322;-96
2023/07/02 09:45:33;;;;;;;4.63;1.20;;;13.80;99.90;;;;;;5039307;28;20212;-96
2023/07/02 09:48:06;;;;;;;2.47;1.20;;;13.80;99.90;;;;;;5038424;28;20247;-96
2023/07/02 09:50:40;;;;;;;4.13;1.40;;;13.70;99.90;;;;;;5036053;28;20215;-96
2023/07/02 09:53:12;;;;;;;2.97;1.10;;;13.70;99.90;;;;;;5046705;28;20264;-96
2023/07/02 09:55:49;;;;;;;3.07;1.70;;;13.70;99.90;;;;;;5056909;28;20212;-96
2023/07/02 09:58:21;;;;;;;2.10;1.07;;;13.70;99.90;;;;;;5045294;28;20231;-96
2023/07/02 10:00:55;;;;;;;3.43;1.33;;;13.70;99.90;;;;;;5059968;28;20235;-96
2023/07/02 10:03:32;;;;;;;3.33;1.23;;;13.70;99.90;;;;;;5045830;28;20236;-95
2023/07/02 10:06:10;;;;;;;5.07;2.07;;;13.70;99.90;;;;;;5053927;28;20213;-96
2023/07/02 10:08:42;;;;;;;2.10;1.10;;;13.60;99.90;;;;;;5056923;28;20651;-96
2023/07/02 10:11:18;;;;;;;4.40;1.50;;;13.60;99.90;;;;;;5030058;28;20201;-96
2023/07/02 10:14:02;;;;;;;5.67;1.23;;;13.50;99.90;;;;;;5030552;28;20218;-96
2023/07/02 10:16:35;;;;;;;3.10;1.10;;;13.50;99.90;;;;;;5029890;28;20292;-96
2023/07/02 10:19:13;;;;;;;3.57;1.37;;;13.50;99.90;;;;;;5032730;28;20213;-96
2023/07/02 10:21:49;;;;;;;2.07;0.97;;;13.50;99.90;;;;;;5047884;28;20212;-96
2023/07/02 10:24:25;;;;;;;4.30;1.30;;;13.50;99.90;;;;;;5050405;28;20212;-96
2023/07/02 10:27:02;;;;;;;2.60;1.23;;;13.50;99.90;;;;;;5046199;28;20208;-96
2023/07/02 10:29:36;;;;;;;2.60;1.10;;;13.50;99.90;;;;;;5045564;28;20671;-96
2023/07/02 10:32:08;;;;;;;3.63;1.30;;;13.50;99.90;;;;;;5040648;28;20219;-96
2023/07/02 10:34:41;;;;;;;3.13;1.33;;;13.40;99.90;;;;;;5033941;28;20652;-96
2023/07/02 10:37:14;;;;;;;2.77;1.17;;;13.40;99.90;;;;;;5041396;28;20209;-96
2023/07/02 10:39:46;;;;;;;2.43;1.40;;;13.40;99.90;;;;;;5034904;28;20208;-96
2023/07/02 10:42:32;;;;;;;3.70;1.20;;;13.40;99.90;;;;;;5056718;28;20192;-96
2023/07/02 10:45:08;;;;;;;2.50;1.37;;;13.40;99.90;;;;;;5050055;28;20192;-96
2023/07/02 10:47:42;;;;;;;3.60;1.10;;;13.30;99.90;;;;;;5053913;28;20299;-96
2023/07/02 10:50:19;;;;;;;2.83;1.30;;;13.30;99.90;;;;;;5047556;28;20197;-96
2023/07/02 10:52:51;;;;;;;5.27;1.07;;;13.20;99.90;;;;;;5052805;28;20189;-96
2023/07/02 10:55:24;;;;;;;3.73;1.10;;;13.20;99.90;;;;;;5056720;28;20193;-96
2023/07/02 10:58:09;;;;;;;4.73;1.20;;;13.10;99.90;;;;;;5047553;28;20432;-96
2023/07/02 11:00:48;;;;;;;3.77;1.27;;;13.10;99.90;;;;;;5039587;28;20228;-96
2023/07/02 11:03:21;;;;;;;3.37;1.00;;;13.10;99.90;;;;;;5039830;28;20231;-96
2023/07/02 11:05:54;;;;;;;2.13;0.80;;;13.00;99.90;;;;;;5049305;28;20212;-96
2023/07/02 11:08:37;;;;;;;5.30;1.40;;;13.00;99.90;;;;;;5053733;28;20228;-96
2023/07/02 11:11:10;;;;;;;5.27;1.50;;;13.00;99.90;;;;;;5058809;28;20256;-96
2023/07/02 11:13:51;;;;;;;4.17;1.37;;;13.00;99.90;;;;;;5249884;22;20255;-96
2023/07/02 11:16:38;;;;;;;3.30;1.27;;;12.90;99.90;;;;;;5058146;28;20188;-96
2023/07/02 11:19:14;;;;;;;3.40;1.27;;;12.90;99.90;;;;;;5058327;28;20197;-96
2023/07/02 11:21:56;;;;;;;3.67;1.57;;;12.90;99.90;;;;;;5057995;28;20209;-96
2023/07/02 11:24:32;;;;;;;1.90;1.07;;;12.80;99.90;;;;;;5053462;28;20240;-96
2023/07/02 11:27:08;;;;;;;2.07;1.10;;;12.60;99.90;;;;;;5052424;28;20216;-96
2023/07/02 11:29:43;;;;;;;3.90;1.27;;;12.70;99.90;;;;;;5055343;28;20299;-96
2023/07/02 11:32:16;;;;;;;1.67;1.20;;;12.70;99.90;;;;;;5049461;28;20220;-96
2023/07/02 11:34:56;;;;;;;3.67;1.40;;;12.80;99.90;;;;;;5054851;28;20189;-94
2023/07/02 11:37:29;;;;;;;3.77;1.00;;;12.80;99.90;;;;;;5058321;28;20272;-96
2023/07/02 11:40:01;;;;;;;6.20;1.40;;;12.80;99.90;;;;;;5045534;28;20236;-96
2023/07/02 11:42:33;;;;;;;2.77;1.40;;;12.70;99.90;;;;;;5032751;28;20193;-96
2023/07/02 11:45:18;;;;;;;4.30;1.40;;;12.60;99.90;;;;;;5026718;28;20205;-96
2023/07/02 11:47:51;;;;;;;2.60;1.17;;;12.60;99.90;;;;;;5032503;28;20350;-96
2023/07/02 11:50:26;;;;;;;4.37;1.10;;;12.60;99.90;;;;;;5025029;28;20203;-96
2023/07/02 11:52:58;;;;;;;2.63;1.20;;;12.60;99.90;;;;;;5039449;28;20211;-96
2023/07/02 11:55:34;;;;;;;2.87;1.00;;;12.60;99.90;;;;;;5022005;28;20211;-96
2023/07/02 11:58:05;;;;;;;3.00;1.30;;;12.60;99.90;;;;;;5037669;28;20265;-96
2023/07/02 12:00:39;;;;;;;3.77;1.30;;;12.50;99.90;;;;;;5046096;28;20197;-96
2023/07/02 12:03:12;;;;;;;1.83;1.10;;;12.50;99.90;;;;;;5051109;28;20687;-96
2023/07/02 12:05:43;;;;;;;5.77;1.60;;;12.50;99.90;;;;;;5055677;28;20192;-96
2023/07/02 12:08:17;;;;;;;1.83;1.00;;;12.50;99.90;;;;;;5045540;28;20182;-96
2023/07/02 12:10:48;;;;;;;7.33;1.70;;;12.40;99.90;;;;;;5049929;28;20217;-96
2023/07/02 12:13:21;;;;;;;3.57;1.47;;;12.40;99.90;;;;;;5043146;28;20208;-96
2023/07/02 12:15:56;;;;;;;4.20;1.97;;;12.30;99.90;;;;;;5055985;28;20209;-96
2023/07/02 12:18:29;;;;;;;2.53;1.10;;;12.30;99.90;;;;;;5048759;28;20636;-96
2023/07/02 12:21:02;;;;;;;3.67;1.37;;;12.30;99.90;;;;;;5041508;28;20209;-96
2023/07/02 12:23:37;;;;;;;6.53;1.43;;;12.30;99.90;;;;;;5050464;28;20204;-96
2023/07/02 12:26:09;;;;;;;6.00;1.40;;;12.30;99.90;;;;;;5049850;28;20300;-96
2023/07/02 12:28:41;;;;;;;4.97;1.40;;;12.30;99.90;;;;;;5030731;28;20236;-96
2023/07/02 12:31:15;;;;;;;6.07;1.90;;;12.30;99.90;;;;;;5044132;28;20231;-95
2023/07/02 12:33:51;;;;;;;4.83;1.70;;;12.30;99.90;;;;;;5047492;28;20220;-96
2023/07/02 12:36:24;;;;;;;4.70;1.37;;;12.30;99.90;;;;;;5049884;28;20267;-96
2023/07/02 12:38:56;;;;;;;5.13;1.50;;;12.30;99.90;;;;;;5049845;28;20287;-96
2023/07/02 12:41:28;;;;;;;7.73;2.10;;;12.30;99.90;;;;;;5029171;28;20201;-96
2023/07/02 12:44:00;;;;;;;5.03;1.30;;;12.30;99.90;;;;;;5028139;28;20205;-95
2023/07/02 12:46:33;;;;;;;4.20;1.43;;;12.30;99.90;;;;;;5037377;28;20266;-96
2023/07/02 12:49:04;;;;;;;6.20;1.90;;;12.40;99.90;;;;;;5035600;28;20229;-96
2023/07/02 12:51:36;;;;;;;5.17;1.57;;;12.40;99.90;;;;;;5025707;28;20201;-96
2023/07/02 12:54:08;;;;;;;8.17;1.80;;;12.40;99.90;;;;;;5028666;28;20217;-96
2023/07/02 12:56:41;;;;;;;5.10;1.80;;;12.40;99.90;;;;;;5036363;28;20251;-96
2023/07/02 12:59:12;;;;;;;5.93;1.70;;;12.50;99.90;;;;;;5034404;28;20201;-96
2023/07/02 13:01:47;;;;;;;6.20;1.50;;;12.50;99.90;;;;;;5024794;28;20288;-96
2023/07/02 13:04:19;;;;;;;5.63;1.80;;;12.60;99.90;;;;;;5034609;28;20275;-96
2023/07/02 13:06:52;;;;;;;5.60;2.03;;;12.60;99.90;;;;;;5023000;28;20225;-96
2023/07/02 13:09:23;;;;;;;4.03;1.33;;;12.60;99.90;;;;;;5034382;28;20221;-96
2023/07/02 13:11:57;;;;;;;7.57;2.03;;;12.60;99.90;;;;;;5020451;28;20238;-96
2023/07/02 13:14:30;;;;;;;7.43;2.03;;;12.60;99.90;;;;;;5026406;28;20277;-96
2023/07/02 13:17:07;;;;;;;5.53;1.50;;;12.70;99.90;;;;;;5052107;28;20288;-96
2023/07/02 13:19:40;;;;;;;6.50;1.60;;;12.70;99.90;;;;;;5052247;28;20223;-96
2023/07/02 13:22:13;;;;;;;5.10;1.90;;;12.70;99.90;;;;;;5048092;28;20278;-96
2023/07/02 13:24:45;;;;;;;8.27;1.80;;;12.70;99.90;;;;;;5043100;28;20229;-96
2023/07/02 13:27:22;;;;;;;9.00;1.83;;;12.70;99.90;;;;;;5034498;28;20220;-96
2023/07/02 13:29:58;;;;;;;8.73;1.90;;;12.80;99.90;;;;;;5043820;28;20232;-96
2023/07/02 13:33:08;;;;;;;11.87;1.80;;;12.80;99.90;;;;;;5042517;28;20212;-96
2023/07/02 13:35:41;;;;;;;5.70;2.03;;;12.80;99.90;;;;;;5035272;28;20219;-96
2023/07/02 13:38:13;;;;;;;7.47;1.43;;;12.80;99.90;;;;;;5046216;28;20248;-96
2023/07/02 13:40:48;;;;;;;5.60;1.33;;;12.80;99.90;;;;;;5060451;28;20209;-96
2023/07/02 13:43:21;;;;;;;7.40;2.03;;;12.90;99.90;;;;;;5038496;28;20209;-96
2023/07/02 13:45:54;;;;;;;6.77;1.70;;;12.90;99.90;;;;;;5021416;28;20213;-95
2023/07/02 13:48:46;;;;;;;5.97;1.60;;;12.90;99.90;;;;;;5022982;28;20244;-96
2023/07/02 13:51:19;;;;;;;4.40;1.63;;;13.00;99.90;;;;;;5034010;28;20222;-96
2023/07/02 13:53:52;;;;;;;6.80;1.87;;;13.00;99.90;;;;;;5042715;28;20209;-96
2023/07/02 13:56:24;;;;;;;4.77;1.93;;;13.10;99.90;;;;;;5053268;28;20268;-96
2023/07/02 13:59:07;;;;;;;6.53;1.97;;;13.10;99.90;;;;;;5034616;28;20223;-96
2023/07/02 14:01:39;;;;;;;8.13;1.73;;;13.10;99.90;;;;;;5025314;28;20205;-96
2023/07/02 14:04:11;;;;;;;8.83;1.90;;;13.20;99.90;;;;;;5027519;28;20252;-96